createdAt,value
2018-06-23T00:00:12.117Z,101588.22
2018-06-23T00:02:40.481Z,101582.56
2018-06-23T00:05:08.869Z,101582.96
2018-06-23T00:07:37.247Z,101584.27
2018-06-23T00:10:05.707Z,101580.79
2018-06-23T00:12:34.065Z,101572.93
2018-06-23T00:15:02.461Z,101569.89
2018-06-23T00:17:30.833Z,101585.97
2018-06-23T00:19:59.218Z,101579.41
2018-06-23T00:22:27.603Z,101578.94
2018-06-23T00:24:56.018Z,101575.50
2018-06-23T00:27:24.377Z,101578.07
2018-06-23T00:29:52.794Z,101574.12
2018-06-23T00:32:21.167Z,101572.82
2018-06-23T00:34:49.555Z,101563.26
2018-06-23T00:37:17.957Z,101564.12
2018-06-23T00:39:46.322Z,101565.83
2018-06-23T00:42:14.708Z,101565.86
2018-06-23T00:44:43.081Z,101564.56
2018-06-23T00:47:11.487Z,101560.21
2018-06-23T00:49:39.853Z,101568.44
2018-06-23T00:52:08.242Z,101568.47
2018-06-23T00:54:36.608Z,101556.70
2018-06-23T00:57:06.010Z,101561.52
2018-06-23T00:59:42.550Z,101562.39
2018-06-23T01:02:11.222Z,101561.08
2018-06-23T01:04:39.618Z,101561.91
2018-06-23T01:07:09.215Z,101560.61
2018-06-23T01:09:37.868Z,101567.96
2018-06-23T01:12:06.889Z,101568.36
2018-06-23T01:14:35.654Z,101565.75
2018-06-23T01:17:04.220Z,101569.66
2018-06-23T01:19:32.585Z,101574.41
2018-06-23T01:22:00.979Z,101571.33
2018-06-23T01:24:29.359Z,101572.63
2018-06-23T01:26:57.776Z,101576.97
2018-06-23T01:29:26.181Z,101566.94
2018-06-23T01:31:54.590Z,101563.94
2018-06-23T01:34:22.971Z,101567.38
2018-06-23T01:36:51.706Z,101571.69
2018-06-23T01:39:20.078Z,101565.59
2018-06-23T01:41:48.480Z,101571.64
2018-06-23T01:44:16.870Z,101566.86
2018-06-23T01:46:45.303Z,101575.55
2018-06-23T01:49:13.674Z,101571.17
2018-06-23T01:51:42.074Z,101572.47
2018-06-23T01:54:10.450Z,101565.91
2018-06-23T01:56:38.865Z,101566.78
2018-06-23T01:59:07.230Z,101568.91
2018-06-23T02:01:35.606Z,101562.80
2018-06-23T02:04:03.999Z,101571.00
2018-06-23T02:06:32.365Z,101563.19
2018-06-23T02:09:00.758Z,101567.92
2018-06-23T02:11:29.175Z,101567.45
2018-06-23T02:14:03.002Z,101569.18
2018-06-23T02:16:36.647Z,101559.19
2018-06-23T02:19:10.516Z,101566.10
2018-06-23T02:21:44.329Z,101563.49
2018-06-23T02:24:18.122Z,101566.09
2018-06-23T02:26:51.790Z,101567.41
2018-06-23T02:29:25.510Z,101563.49
2018-06-23T02:31:59.202Z,101566.06
2018-06-23T02:34:32.917Z,101559.11
2018-06-23T02:37:01.289Z,101558.20
2018-06-23T02:39:29.703Z,101554.29
2018-06-23T02:41:58.085Z,101556.02
2018-06-23T02:44:26.485Z,101556.02
2018-06-23T02:46:54.854Z,101559.94
2018-06-23T02:49:23.252Z,101555.55
2018-06-23T02:51:51.631Z,101560.77
2018-06-23T02:54:20.026Z,101559.89
2018-06-23T02:56:48.402Z,101562.06
2018-06-23T02:59:19.121Z,101563.73
2018-06-23T03:01:48.138Z,101556.34
2018-06-23T03:04:16.907Z,101559.39
2018-06-23T03:06:45.301Z,101558.08
2018-06-23T03:09:13.754Z,101563.73
2018-06-23T03:11:42.133Z,101555.44
2018-06-23T03:14:10.526Z,101559.39
2018-06-23T03:16:38.986Z,101562.06
2018-06-23T03:19:07.611Z,101570.32
2018-06-23T03:21:35.992Z,101565.97
2018-06-23T03:24:04.370Z,101570.75
2018-06-23T03:26:32.766Z,101577.27
2018-06-23T03:29:01.138Z,101574.23
2018-06-23T03:31:29.534Z,101572.49
2018-06-23T03:33:57.916Z,101568.16
2018-06-23T03:36:26.314Z,101567.32
2018-06-23T03:38:54.697Z,101569.49
2018-06-23T03:41:23.099Z,101564.28
2018-06-23T03:43:51.503Z,101561.67
2018-06-23T03:46:19.914Z,101570.75
2018-06-23T03:48:48.295Z,101568.16
2018-06-23T03:51:16.694Z,101573.36
2018-06-23T03:53:45.066Z,101573.80
2018-06-23T03:56:13.475Z,101569.45
2018-06-23T03:58:41.854Z,101571.67
2018-06-23T04:01:11.036Z,101562.54
2018-06-23T04:03:39.414Z,101579.05
2018-06-23T04:06:07.818Z,101572.53
2018-06-23T04:08:36.278Z,101581.66
2018-06-23T04:11:04.886Z,101580.78
2018-06-23T04:13:33.759Z,101583.39
2018-06-23T04:16:02.257Z,101582.95
2018-06-23T04:18:30.633Z,101587.26
2018-06-23T04:20:59.029Z,101592.47
2018-06-23T04:23:27.406Z,101593.33
2018-06-23T04:25:55.806Z,101589.79
2018-06-23T04:28:24.174Z,101604.19
2018-06-23T04:30:52.652Z,101603.33
2018-06-23T04:33:21.021Z,101608.97
2018-06-23T04:35:49.413Z,101608.53
2018-06-23T04:38:17.781Z,101608.03
2018-06-23T04:40:46.187Z,101611.50
2018-06-23T04:43:14.562Z,101618.02
2018-06-23T04:45:42.935Z,101609.33
2018-06-23T04:48:11.329Z,101615.48
2018-06-23T04:50:39.707Z,101614.70
2018-06-23T04:53:08.107Z,101612.19
2018-06-23T04:55:36.483Z,101607.89
2018-06-23T04:58:04.887Z,101606.23
2018-06-23T05:00:33.368Z,101600.19
2018-06-23T05:03:01.687Z,101605.61
2018-06-23T05:05:30.079Z,101597.16
2018-06-23T05:07:58.482Z,101587.34
2018-06-23T05:10:26.886Z,101590.17
2018-06-23T05:12:55.289Z,101579.07
2018-06-23T05:15:23.733Z,101579.70
2018-06-23T05:17:52.129Z,101580.45
2018-06-23T05:20:20.648Z,101585.33
2018-06-23T05:22:49.033Z,101579.86
2018-06-23T05:25:17.407Z,101574.33
2018-06-23T05:27:45.803Z,101572.30
2018-06-23T05:30:14.174Z,101570.22
2018-06-23T05:32:42.578Z,101573.34
2018-06-23T05:35:10.945Z,101579.95
2018-06-23T05:37:39.399Z,101578.73
2018-06-23T05:40:07.757Z,101581.45
2018-06-23T05:42:36.167Z,101586.73
2018-06-23T05:45:04.592Z,101584.20
2018-06-23T05:47:32.990Z,101580.38
2018-06-23T05:50:01.368Z,101579.97
2018-06-23T05:52:29.765Z,101575.22
2018-06-23T05:54:58.143Z,101579.58
2018-06-23T05:57:26.550Z,101583.09
2018-06-23T05:59:54.926Z,101580.53
2018-06-23T06:02:23.349Z,101575.30
2018-06-23T06:04:51.719Z,101570.10
2018-06-23T06:07:20.094Z,101574.50
2018-06-23T06:09:48.539Z,101565.77
2018-06-23T06:12:16.931Z,101582.31
2018-06-23T06:14:45.338Z,101580.19
2018-06-23T06:17:32.178Z,101580.66
2018-06-23T06:20:03.755Z,101580.68
2018-06-23T06:22:33.216Z,101577.64
2018-06-23T06:25:01.615Z,101578.55
2018-06-23T06:27:30.019Z,101579.45
2018-06-23T06:29:59.009Z,101579.52
2018-06-23T06:32:27.883Z,101583.02
2018-06-23T06:34:56.306Z,101580.39
2018-06-23T06:37:24.678Z,101574.70
2018-06-23T06:39:53.082Z,101582.16
2018-06-23T06:42:21.478Z,101575.61
2018-06-23T06:44:49.882Z,101585.68
2018-06-23T06:47:19.186Z,101586.09
2018-06-23T06:49:47.801Z,101583.03
2018-06-23T06:52:16.191Z,101591.33
2018-06-23T06:54:44.952Z,101585.25
2018-06-23T06:57:13.363Z,101588.73
2018-06-23T06:59:41.776Z,101583.52
2018-06-23T07:02:10.157Z,101588.77
2018-06-23T07:04:38.550Z,101583.50
2018-06-23T07:07:06.935Z,101583.95
2018-06-23T07:09:35.350Z,101580.89
2018-06-23T07:12:03.718Z,101575.66
2018-06-23T07:14:32.105Z,101575.66
2018-06-23T07:17:00.473Z,101583.08
2018-06-23T07:19:28.876Z,101586.59
2018-06-23T07:21:57.255Z,101587.89
2018-06-23T07:24:25.663Z,101578.72
2018-06-23T07:26:54.038Z,101592.25
2018-06-23T07:29:22.460Z,101576.53
2018-06-23T07:31:50.850Z,101576.52
2018-06-23T07:34:19.289Z,101584.82
2018-06-23T07:36:47.649Z,101584.81
2018-06-23T07:39:16.022Z,101579.09
2018-06-23T07:41:44.423Z,101578.13
2018-06-23T07:44:12.810Z,101578.56
2018-06-23T07:46:41.237Z,101570.22
2018-06-23T07:49:09.595Z,101574.56
2018-06-23T07:51:37.986Z,101575.81
2018-06-23T07:54:06.350Z,101579.34
2018-06-23T07:56:34.746Z,101582.02
2018-06-23T07:59:03.157Z,101575.91
2018-06-23T08:01:31.568Z,101585.55
2018-06-23T08:03:59.968Z,101596.04
2018-06-23T08:06:28.370Z,101587.67
2018-06-23T08:08:56.734Z,101588.57
2018-06-23T08:11:25.145Z,101589.42
2018-06-23T08:13:53.514Z,101591.62
2018-06-23T08:16:21.934Z,101580.20
2018-06-23T08:18:50.297Z,101586.70
2018-06-23T08:21:18.694Z,101582.33
2018-06-23T08:23:47.070Z,101581.85
2018-06-23T08:26:15.508Z,101594.55
2018-06-23T08:28:43.875Z,101586.64
2018-06-23T08:31:12.270Z,101586.58
2018-06-23T08:33:40.644Z,101591.77
2018-06-23T08:36:09.058Z,101582.92
2018-06-23T08:38:37.431Z,101587.61
2018-06-23T08:41:05.903Z,101589.24
2018-06-23T08:43:34.283Z,101587.38
2018-06-23T08:46:02.691Z,101600.98
2018-06-23T08:48:31.083Z,101586.46
2018-06-23T08:50:59.469Z,101584.73
2018-06-23T08:53:27.840Z,101595.75
2018-06-23T08:55:56.243Z,101592.77
2018-06-23T08:58:24.620Z,101588.86
2018-06-23T09:00:52.996Z,101582.21
2018-06-23T09:03:21.390Z,101587.41
2018-06-23T09:05:49.770Z,101586.99
2018-06-23T09:08:18.162Z,101592.77
2018-06-23T09:10:46.568Z,101587.52
2018-06-23T09:13:14.960Z,101591.80
2018-06-23T09:15:43.338Z,101590.41
2018-06-23T09:18:11.726Z,101594.40
2018-06-23T09:20:40.103Z,101603.23
2018-06-23T09:23:08.501Z,101610.65
2018-06-23T09:25:36.952Z,101604.48
2018-06-23T09:28:05.431Z,101608.02
2018-06-23T09:30:33.828Z,101601.32
2018-06-23T09:33:02.231Z,101606.17
2018-06-23T09:35:30.616Z,101610.58
2018-06-23T09:37:59.019Z,101609.70
2018-06-23T09:40:27.390Z,101607.56
2018-06-23T09:42:55.799Z,101611.92
2018-06-23T09:45:24.190Z,101611.81
2018-06-23T09:47:52.583Z,101611.81
2018-06-23T09:50:20.963Z,101614.94
2018-06-23T09:52:49.357Z,101622.00
2018-06-23T09:55:17.734Z,101623.32
2018-06-23T09:57:46.130Z,101618.81
2018-06-23T10:00:17.277Z,101615.27
2018-06-23T10:02:47.423Z,101624.00
2018-06-23T10:05:15.794Z,101624.41
2018-06-23T10:07:44.191Z,101625.32
2018-06-23T10:10:12.590Z,101609.92
2018-06-23T10:12:40.977Z,101621.25
2018-06-23T10:15:09.366Z,101619.84
2018-06-23T10:17:37.734Z,101619.02
2018-06-23T10:20:06.142Z,101616.88
2018-06-23T10:22:34.522Z,101631.91
2018-06-23T10:25:02.922Z,101620.42
2018-06-23T10:27:31.303Z,101629.56
2018-06-23T10:29:59.694Z,101622.98
2018-06-23T10:32:28.070Z,101620.84
2018-06-23T10:34:56.469Z,101634.49
2018-06-23T10:37:24.858Z,101633.63
2018-06-23T10:39:53.249Z,101632.80
2018-06-23T10:42:21.629Z,101637.63
2018-06-23T10:44:50.035Z,101631.91
2018-06-23T10:47:18.402Z,101633.09
2018-06-23T10:49:46.805Z,101643.84
2018-06-23T10:52:15.191Z,101646.39
2018-06-23T10:54:43.587Z,101650.70
2018-06-23T10:57:11.964Z,101637.82
2018-06-23T10:59:40.404Z,101653.59
2018-06-23T11:02:09.006Z,101650.85
2018-06-23T11:04:37.435Z,101648.52
2018-06-23T11:07:05.994Z,101652.84
2018-06-23T11:09:34.582Z,101651.01
2018-06-23T11:12:02.950Z,101651.41
2018-06-23T11:14:31.373Z,101649.63
2018-06-23T11:16:59.754Z,101638.73
2018-06-23T11:19:28.829Z,101646.70
2018-06-23T11:21:57.202Z,101652.33
2018-06-23T11:24:25.749Z,101653.25
2018-06-23T11:26:54.097Z,101652.44
2018-06-23T11:29:22.506Z,101657.34
2018-06-23T11:31:50.886Z,101655.62
2018-06-23T11:34:19.294Z,101659.12
2018-06-23T11:36:47.675Z,101659.07
2018-06-23T11:39:16.069Z,101660.80
2018-06-23T11:41:44.470Z,101649.38
2018-06-23T11:44:12.863Z,101645.68
2018-06-23T11:46:41.392Z,101643.90
2018-06-23T11:49:09.809Z,101643.09
2018-06-23T11:51:38.226Z,101662.06
2018-06-23T11:54:06.605Z,101652.88
2018-06-23T11:56:35.019Z,101649.39
2018-06-23T11:59:03.390Z,101651.56
2018-06-23T12:01:32.092Z,101655.92
2018-06-23T12:04:00.482Z,101653.23
2018-06-23T12:06:28.879Z,101662.83
2018-06-23T12:08:57.249Z,101642.58
2018-06-23T12:11:25.666Z,101640.05
2018-06-23T12:13:54.043Z,101640.61
2018-06-23T12:16:22.434Z,101656.13
2018-06-23T12:18:50.801Z,101645.23
2018-06-23T12:21:19.217Z,101652.73
2018-06-23T12:23:47.596Z,101646.90
2018-06-23T12:26:16.015Z,101636.66
2018-06-23T12:28:44.378Z,101647.55
2018-06-23T12:31:12.790Z,101648.38
2018-06-23T12:33:41.158Z,101656.27
2018-06-23T12:36:09.562Z,101660.70
2018-06-23T12:38:37.942Z,101652.33
2018-06-23T12:41:06.357Z,101658.45
2018-06-23T12:43:34.730Z,101651.02
2018-06-23T12:46:03.131Z,101661.25
2018-06-23T12:48:31.500Z,101655.17
2018-06-23T12:50:59.923Z,101658.36
2018-06-23T12:53:28.306Z,101647.81
2018-06-23T12:55:56.698Z,101647.72
2018-06-23T12:58:25.098Z,101645.03
2018-06-23T13:00:53.510Z,101664.71
2018-06-23T13:03:21.937Z,101663.84
2018-06-23T13:05:50.313Z,101656.39
2018-06-23T13:08:18.702Z,101650.36
2018-06-23T13:10:47.096Z,101656.03
2018-06-23T13:13:15.579Z,101664.41
2018-06-23T13:15:43.950Z,101650.04
2018-06-23T13:18:12.338Z,101632.66
2018-06-23T13:20:41.220Z,101655.87
2018-06-23T13:23:09.731Z,101663.30
2018-06-23T13:25:38.190Z,101658.11
2018-06-23T13:28:06.597Z,101661.66
2018-06-23T13:30:35.034Z,101668.28
2018-06-23T13:33:03.457Z,101667.52
2018-06-23T13:35:31.846Z,101666.24
2018-06-23T13:38:00.243Z,101669.78
2018-06-23T13:40:28.632Z,101666.28
2018-06-23T13:42:57.043Z,101668.51
2018-06-23T13:45:25.422Z,101666.69
2018-06-23T13:47:53.931Z,101664.52
2018-06-23T13:50:22.306Z,101675.55
2018-06-23T13:52:50.755Z,101664.22
2018-06-23T13:55:19.147Z,101675.73
2018-06-23T13:57:47.551Z,101674.04
2018-06-23T14:00:15.922Z,101671.41
2018-06-23T14:02:44.317Z,101668.28
2018-06-23T14:05:12.686Z,101667.42
2018-06-23T14:07:41.085Z,101673.09
2018-06-23T14:10:09.502Z,101666.97
2018-06-23T14:12:37.897Z,101667.42
2018-06-23T14:15:06.595Z,101664.86
2018-06-23T14:17:34.958Z,101667.11
2018-06-23T14:20:03.383Z,101671.55
2018-06-23T14:22:31.760Z,101669.81
2018-06-23T14:25:00.159Z,101668.53
2018-06-23T14:27:28.549Z,101675.14
2018-06-23T14:29:56.942Z,101661.53
2018-06-23T14:32:25.321Z,101661.08
2018-06-23T14:34:53.723Z,101662.81
2018-06-23T14:37:22.102Z,101664.06
2018-06-23T14:39:50.502Z,101664.48
2018-06-23T14:42:18.874Z,101672.38
2018-06-23T14:44:47.270Z,101663.16
2018-06-23T14:47:15.655Z,101660.91
2018-06-23T14:49:44.055Z,101663.02
2018-06-23T14:52:12.431Z,101661.17
2018-06-23T14:54:40.825Z,101654.51
2018-06-23T14:57:09.231Z,101657.52
2018-06-23T14:59:37.694Z,101654.84
2018-06-23T15:02:06.022Z,101648.16
2018-06-23T15:04:34.417Z,101646.80
2018-06-23T15:07:02.786Z,101649.43
2018-06-23T15:09:47.490Z,101644.12
2018-06-23T15:12:27.293Z,101646.71
2018-06-23T15:14:55.686Z,101643.66
2018-06-23T15:17:24.071Z,101649.39
2018-06-23T15:19:52.470Z,101644.16
2018-06-23T15:22:20.855Z,101645.56
2018-06-23T15:24:49.258Z,101638.20
2018-06-23T15:27:17.670Z,101644.83
2018-06-23T15:29:46.071Z,101640.55
2018-06-23T15:32:14.455Z,101646.76
2018-06-23T15:34:42.867Z,101641.94
2018-06-23T15:37:11.245Z,101643.14
2018-06-23T15:39:39.642Z,101635.65
2018-06-23T15:42:08.030Z,101639.60
2018-06-23T15:44:36.435Z,101640.47
2018-06-23T15:47:05.063Z,101637.38
2018-06-23T15:49:33.455Z,101636.97
2018-06-23T15:52:01.827Z,101634.83
2018-06-23T15:54:30.243Z,101641.00
2018-06-23T15:56:58.614Z,101638.00
2018-06-23T15:59:26.981Z,101638.11
2018-06-23T16:01:55.370Z,101633.37
2018-06-23T16:04:23.742Z,101636.07
2018-06-23T16:06:52.133Z,101641.40
2018-06-23T16:09:20.536Z,101635.78
2018-06-23T16:11:48.978Z,101640.23
2018-06-23T16:14:17.362Z,101637.63
2018-06-23T16:16:45.767Z,101636.83
2018-06-23T16:19:14.137Z,101642.98
2018-06-23T16:21:42.530Z,101635.14
2018-06-23T16:24:10.915Z,101635.17
2018-06-23T16:26:39.323Z,101636.05
2018-06-23T16:29:07.702Z,101641.79
2018-06-23T16:31:36.694Z,101638.73
2018-06-23T16:34:05.096Z,101635.70
2018-06-23T16:36:33.499Z,101633.95
2018-06-23T16:39:01.873Z,101638.81
2018-06-23T16:41:30.279Z,101633.56
2018-06-23T16:43:58.659Z,101635.34
2018-06-23T16:46:27.059Z,101641.48
2018-06-23T16:48:55.518Z,101642.38
2018-06-23T16:51:23.914Z,101642.39
2018-06-23T16:53:52.306Z,101640.67
2018-06-23T16:56:20.697Z,101641.13
2018-06-23T16:58:49.078Z,101649.45
2018-06-23T17:01:17.559Z,101645.09
2018-06-23T17:03:46.010Z,101654.77
2018-06-23T17:06:14.364Z,101653.02
2018-06-23T17:08:42.746Z,101646.03
2018-06-23T17:11:11.344Z,101649.09
2018-06-23T17:13:39.804Z,101646.48
2018-06-23T17:16:08.226Z,101646.05
2018-06-23T17:18:36.602Z,101652.63
2018-06-23T17:21:04.991Z,101653.95
2018-06-23T17:23:33.394Z,101646.03
2018-06-23T17:26:01.775Z,101647.78
2018-06-23T17:28:30.180Z,101643.86
2018-06-23T17:30:58.560Z,101645.60
2018-06-23T17:33:26.953Z,101640.80
2018-06-23T17:35:55.326Z,101649.97
2018-06-23T17:38:23.753Z,101640.36
2018-06-23T17:40:52.145Z,101643.43
2018-06-23T17:43:20.650Z,101634.25
2018-06-23T17:45:49.046Z,101644.31
2018-06-23T17:48:17.496Z,101636.42
2018-06-23T17:50:45.966Z,101642.55
2018-06-23T17:53:14.374Z,101632.06
2018-06-23T17:55:42.760Z,101635.55
2018-06-23T17:58:11.161Z,101640.37
2018-06-23T18:00:39.539Z,101633.80
2018-06-23T18:03:07.947Z,101639.48
2018-06-23T18:05:36.335Z,101642.12
2018-06-23T18:08:04.757Z,101635.11
2018-06-23T18:10:33.159Z,101639.06
2018-06-23T18:13:01.556Z,101642.55
2018-06-23T18:15:29.934Z,101641.23
2018-06-23T18:17:58.330Z,101644.30
2018-06-23T18:20:26.700Z,101635.12
2018-06-23T18:22:55.120Z,101639.05
2018-06-23T18:25:23.522Z,101641.66
2018-06-23T18:27:51.923Z,101645.16
2018-06-23T18:30:20.290Z,101643.44
2018-06-23T18:32:48.698Z,101642.53
2018-06-23T18:35:17.066Z,101638.61
2018-06-23T18:37:45.443Z,101637.72
2018-06-23T18:40:13.842Z,101639.47
2018-06-23T18:42:42.214Z,101643.84
2018-06-23T18:45:10.619Z,101642.09
2018-06-23T18:47:38.986Z,101642.53
2018-06-23T18:50:07.377Z,101643.80
2018-06-23T18:52:35.767Z,101652.56
2018-06-23T18:55:04.219Z,101656.45
2018-06-23T18:57:32.598Z,101649.45
2018-06-23T19:00:01.015Z,101642.91
2018-06-23T19:02:29.385Z,101648.13
2018-06-23T19:04:57.799Z,101649.00
2018-06-23T19:07:26.194Z,101659.48
2018-06-23T19:09:54.618Z,101652.93
2018-06-23T19:12:23.005Z,101655.98
2018-06-23T19:14:51.405Z,101647.67
2018-06-23T19:17:19.799Z,101657.27
2018-06-23T19:19:48.197Z,101657.25
2018-06-23T19:22:16.579Z,101658.07
2018-06-23T19:24:44.991Z,101662.00
2018-06-23T19:27:13.370Z,101657.17
2018-06-23T19:29:41.786Z,101667.19
2018-06-23T19:32:10.163Z,101666.73
2018-06-23T19:34:38.574Z,101671.09
2018-06-23T19:37:06.958Z,101670.20
2018-06-23T19:39:35.395Z,101670.64
2018-06-23T19:42:03.785Z,101669.73
2018-06-23T19:44:32.186Z,101671.05
2018-06-23T19:47:00.631Z,101676.71
2018-06-23T19:49:29.005Z,101671.02
2018-06-23T19:51:57.382Z,101671.89
2018-06-23T19:54:26.227Z,101666.64
2018-06-23T19:56:54.627Z,101674.91
2018-06-23T19:59:22.993Z,101673.16
2018-06-23T20:01:51.410Z,101679.69
2018-06-23T20:04:19.800Z,101679.64
2018-06-23T20:06:48.200Z,101680.50
2018-06-23T20:09:16.579Z,101676.53
2018-06-23T20:11:45.008Z,101681.32
2018-06-23T20:14:13.382Z,101680.87
2018-06-23T20:16:41.793Z,101684.33
2018-06-23T20:19:10.181Z,101684.74
2018-06-23T20:21:38.587Z,101681.70
2018-06-23T20:24:06.963Z,101680.37
2018-06-23T20:26:35.370Z,101682.53
2018-06-23T20:29:03.757Z,101680.30
2018-06-23T20:31:32.201Z,101679.86
2018-06-23T20:34:00.587Z,101687.25
2018-06-23T20:36:28.985Z,101678.48
2018-06-23T20:38:57.366Z,101681.11
2018-06-23T20:41:25.794Z,101684.58
2018-06-23T20:43:54.172Z,101678.88
2018-06-23T20:46:22.574Z,101687.14
2018-06-23T20:48:50.941Z,101691.08
2018-06-23T20:51:19.342Z,101685.38
2018-06-23T20:53:47.728Z,101684.90
2018-06-23T20:56:16.138Z,101682.67
2018-06-23T20:58:44.522Z,101685.70
2018-06-23T21:01:12.931Z,101682.62
2018-06-23T21:03:41.305Z,101689.16
2018-06-23T21:06:09.734Z,101679.09
2018-06-23T21:08:38.146Z,101693.52
2018-06-23T21:11:06.803Z,101691.31
2018-06-23T21:13:35.403Z,101695.67
2018-06-23T21:16:03.786Z,101692.19
2018-06-23T21:18:33.134Z,101688.23
2018-06-23T21:21:01.598Z,101687.37
2018-06-23T21:23:30.006Z,101687.78
2018-06-23T21:25:58.399Z,101689.09
2018-06-23T21:28:28.641Z,101683.84
2018-06-23T21:30:57.068Z,101689.07
2018-06-23T21:33:25.458Z,101679.46
2018-06-23T21:35:53.838Z,101681.61
2018-06-23T21:38:22.247Z,101686.41
2018-06-23T21:40:50.671Z,101682.02
2018-06-23T21:43:19.144Z,101681.56
2018-06-23T21:45:47.521Z,101678.48
2018-06-23T21:48:29.062Z,101674.11
2018-06-23T21:50:57.447Z,101686.28
2018-06-23T21:53:25.851Z,101681.02
2018-06-23T21:55:54.242Z,101684.05
2018-06-23T21:58:22.726Z,101691.02
2018-06-23T22:00:52.490Z,101682.72
2018-06-23T22:03:20.894Z,101686.61
2018-06-23T22:05:49.265Z,101682.66
2018-06-23T22:08:17.663Z,101682.61
2018-06-23T22:10:46.057Z,101686.50
2018-06-23T22:13:14.462Z,101687.31
2018-06-23T22:15:42.839Z,101689.91
2018-06-23T22:18:13.280Z,101688.97
2018-06-23T22:20:42.817Z,101689.81
2018-06-23T22:23:11.295Z,101688.02
2018-06-23T22:25:39.681Z,101691.03
2018-06-23T22:28:08.087Z,101693.59
2018-06-23T22:30:36.503Z,101688.30
2018-06-23T22:33:04.999Z,101687.83
2018-06-23T22:35:33.378Z,101687.33
2018-06-23T22:38:01.754Z,101694.73
2018-06-23T22:40:30.164Z,101688.61
2018-06-23T22:42:58.548Z,101686.83
2018-06-23T22:45:26.946Z,101683.72
2018-06-23T22:47:55.343Z,101681.52
2018-06-23T22:50:23.750Z,101679.70
2018-06-23T22:52:52.130Z,101684.46
2018-06-23T22:55:20.529Z,101677.03
2018-06-23T22:57:49.867Z,101679.64
2018-06-23T23:00:34.879Z,101676.96
2018-06-23T23:03:03.262Z,101680.87
2018-06-23T23:05:31.670Z,101677.80
2018-06-23T23:08:00.044Z,101674.75
2018-06-23T23:10:28.462Z,101678.20
2018-06-23T23:12:57.064Z,101675.59
2018-06-23T23:15:25.402Z,101675.16
2018-06-23T23:17:53.786Z,101675.59
2018-06-23T23:20:22.187Z,101670.37
2018-06-23T23:22:50.561Z,101668.22
2018-06-23T23:25:18.962Z,101671.70
2018-06-23T23:27:47.349Z,101670.87
2018-06-23T23:30:24.579Z,101667.82
2018-06-23T23:32:52.961Z,101664.88
2018-06-23T23:35:21.359Z,101665.31
2018-06-23T23:37:49.734Z,101664.94
2018-06-23T23:40:18.234Z,101661.02
2018-06-23T23:42:46.625Z,101660.16
2018-06-23T23:45:15.021Z,101658.88
2018-06-23T23:47:43.410Z,101658.41
2018-06-23T23:50:11.847Z,101656.23
2018-06-23T23:52:40.227Z,101654.03
2018-06-23T23:55:08.677Z,101654.43
2018-06-23T23:57:37.077Z,101655.30
